createdAt,value
2023-03-14T00:02:54.938Z,98092.43
2023-03-14T00:07:57.992Z,98090.20
2023-03-14T00:13:01.001Z,98082.92
2023-03-14T00:18:04.117Z,98081.42
2023-03-14T00:23:07.215Z,98075.97
2023-03-14T00:28:10.219Z,98062.73
2023-03-14T00:33:13.123Z,98057.65
2023-03-14T00:38:16.128Z,98059.73
2023-03-14T00:43:22.823Z,98046.66
2023-03-14T00:48:25.829Z,98031.33
2023-03-14T00:53:28.848Z,98023.95
2023-03-14T00:58:31.942Z,98025.88
2023-03-14T01:03:35.060Z,98034.16
2023-03-14T01:08:38.165Z,98036.13
2023-03-14T01:13:41.171Z,98030.31
2023-03-14T01:18:46.024Z,98028.55
2023-03-14T01:23:50.289Z,98026.77
2023-03-14T01:28:55.388Z,98017.89
2023-03-14T01:33:58.421Z,98007.63
2023-03-14T01:39:01.553Z,97985.40
2023-03-14T01:44:04.648Z,97979.66
2023-03-14T01:49:34.989Z,97968.39
2023-03-14T01:54:47.823Z,97963.29
2023-03-14T02:00:21.552Z,97964.39
2023-03-14T02:05:29.476Z,97965.10
2023-03-14T02:10:38.074Z,97959.00
2023-03-14T02:15:41.663Z,97964.88
2023-03-14T02:21:10.024Z,97963.79
2023-03-14T02:26:21.120Z,97953.27
2023-03-14T02:31:24.892Z,97940.02
2023-03-14T02:36:29.895Z,97933.59
2023-03-14T02:41:33.209Z,97925.23
2023-03-14T02:46:36.215Z,97925.19
2023-03-14T02:51:41.165Z,97926.69
2023-03-14T02:56:44.078Z,97930.35
2023-03-14T03:01:47.084Z,97932.04
2023-03-14T03:06:50.086Z,97936.58
2023-03-14T03:11:53.288Z,97931.48
2023-03-14T03:16:56.307Z,97939.83
2023-03-14T03:21:59.406Z,97951.27
2023-03-14T03:27:02.829Z,97952.22
2023-03-14T03:32:05.936Z,97969.53
2023-03-14T03:37:09.052Z,97977.61
2023-03-14T03:42:11.950Z,97977.02
2023-03-14T03:47:15.061Z,97969.20
2023-03-14T03:52:19.001Z,97976.75
2023-03-14T03:57:22.097Z,97975.13
2023-03-14T04:02:25.340Z,97977.58
2023-03-14T04:07:28.723Z,97975.03
2023-03-14T04:12:32.037Z,97976.02
2023-03-14T04:17:35.044Z,97980.70
2023-03-14T04:22:38.839Z,97966.56
2023-03-14T04:27:41.878Z,97971.97
2023-03-14T04:32:44.997Z,97965.27
2023-03-14T04:37:50.345Z,97957.11
2023-03-14T04:42:53.860Z,97942.80
2023-03-14T04:47:56.972Z,97922.34
2023-03-14T04:52:59.874Z,97926.29
2023-03-14T04:58:02.883Z,97905.05
2023-03-14T05:03:05.925Z,97889.39
2023-03-14T05:08:09.092Z,97884.89
2023-03-14T05:13:11.997Z,97882.38
2023-03-14T05:18:15.106Z,97892.48
2023-03-14T05:23:18.009Z,97888.89
2023-03-14T05:28:21.124Z,97887.58
2023-03-14T05:33:24.325Z,97880.50
2023-03-14T05:38:27.310Z,97884.09
2023-03-14T05:43:30.454Z,97888.73
2023-03-14T05:48:33.460Z,97888.44
2023-03-14T05:53:36.471Z,97885.79
2023-03-14T05:58:39.977Z,97890.40
2023-03-14T06:03:43.023Z,97897.86
2023-03-14T06:08:46.402Z,97893.00
2023-03-14T06:13:49.914Z,97896.48
2023-03-14T06:18:53.541Z,97897.17
2023-03-14T06:23:56.648Z,97908.52
2023-03-14T06:29:04.506Z,97914.66
2023-03-14T06:34:07.995Z,97916.77
2023-03-14T06:39:11.108Z,97912.86
2023-03-14T06:44:14.204Z,97901.36
2023-03-14T06:49:17.213Z,97910.01
2023-03-14T06:54:20.322Z,97918.02
2023-03-14T06:59:23.637Z,97923.86
2023-03-14T07:04:26.685Z,97905.18
2023-03-14T07:09:29.979Z,97886.48
2023-03-14T07:14:33.169Z,97886.38
2023-03-14T07:19:36.685Z,97883.21
2023-03-14T07:24:39.802Z,97891.83
2023-03-14T07:29:42.813Z,97886.30
2023-03-14T07:34:45.914Z,97879.59
2023-03-14T07:39:49.063Z,97881.02
2023-03-14T07:44:52.130Z,97891.16
2023-03-14T07:49:55.242Z,97887.20
2023-03-14T07:54:58.343Z,97883.54
2023-03-14T08:00:01.458Z,97888.38
2023-03-14T08:05:05.448Z,97890.40
2023-03-14T08:10:09.798Z,97893.41
2023-03-14T08:15:12.829Z,97888.10
2023-03-14T08:20:15.956Z,97878.14
2023-03-14T08:25:19.379Z,97878.86
2023-03-14T08:30:23.666Z,97874.55
2023-03-14T08:35:28.238Z,97879.27
2023-03-14T08:40:31.552Z,97872.91
2023-03-14T08:45:34.657Z,97861.12
2023-03-14T08:50:37.886Z,97841.48
2023-03-14T08:55:41.082Z,97839.36
2023-03-14T09:00:44.199Z,97829.47
2023-03-14T09:05:47.290Z,97829.13
2023-03-14T09:10:50.314Z,97829.61
2023-03-14T09:15:54.439Z,97815.55
2023-03-14T09:20:57.648Z,97809.69
2023-03-14T09:26:01.177Z,97816.04
2023-03-14T09:31:09.659Z,97817.73
2023-03-14T09:36:12.688Z,97810.48
2023-03-14T09:41:29.057Z,97803.27
2023-03-14T09:46:36.223Z,97801.83
2023-03-14T09:51:40.617Z,97801.91
2023-03-14T09:56:43.669Z,97788.90
2023-03-14T10:01:46.727Z,97792.25
2023-03-14T10:06:50.089Z,97800.73
2023-03-14T10:12:08.830Z,97816.88
2023-03-14T10:17:14.944Z,97828.00
2023-03-14T10:22:18.576Z,97829.10
2023-03-14T10:27:32.325Z,97825.53
2023-03-14T10:32:43.301Z,97816.29
2023-03-14T10:38:03.140Z,97820.68
2023-03-14T10:43:14.738Z,97816.17
2023-03-14T10:48:31.558Z,97811.79
2023-03-14T10:53:43.379Z,97803.55
2023-03-14T10:58:49.355Z,97810.83
2023-03-14T11:04:10.667Z,97810.58
2023-03-14T11:09:24.759Z,97801.20
2023-03-14T11:14:33.066Z,97801.55
2023-03-14T11:19:49.155Z,97791.11
2023-03-14T11:25:15.962Z,97783.77
2023-03-14T11:30:19.169Z,97775.67
2023-03-14T11:35:34.887Z,97774.01
2023-03-14T11:40:40.023Z,97786.89
2023-03-14T11:45:45.156Z,97786.58
2023-03-14T11:50:53.115Z,97769.00
2023-03-14T11:55:56.236Z,97772.13
2023-03-14T12:01:08.134Z,97768.13
2023-03-14T12:06:34.858Z,97770.60
2023-03-14T12:12:01.053Z,97779.28
2023-03-14T12:17:19.313Z,97778.80
2023-03-14T12:22:30.001Z,97791.67
2023-03-14T12:27:48.210Z,97795.23
2023-03-14T12:33:10.340Z,97800.64
2023-03-14T12:38:25.707Z,97803.75
2023-03-14T12:43:32.603Z,97799.65
2023-03-14T12:48:35.717Z,97783.43
2023-03-14T12:54:00.530Z,97780.95
2023-03-14T12:59:14.593Z,97786.31
2023-03-14T13:04:21.517Z,97784.77
2023-03-14T13:09:35.457Z,97781.21
2023-03-14T13:14:44.881Z,97784.13
2023-03-14T13:19:53.615Z,97788.37
2023-03-14T13:25:23.815Z,97785.67
2023-03-14T13:30:30.652Z,97783.55
2023-03-14T13:36:04.951Z,97785.40
2023-03-14T13:41:09.433Z,97789.09
2023-03-14T13:46:17.689Z,97784.30
2023-03-14T13:51:22.249Z,97781.54
2023-03-14T13:56:28.639Z,97782.76
2023-03-14T14:01:38.685Z,97784.08
2023-03-14T14:06:52.720Z,97787.52
2023-03-14T14:12:17.475Z,97772.56
2023-03-14T14:17:25.470Z,97751.54
2023-03-14T14:22:28.621Z,97762.58
2023-03-14T14:27:40.269Z,97756.50
2023-03-14T14:32:43.536Z,97765.61
2023-03-14T14:37:46.759Z,97768.06
2023-03-14T14:42:50.970Z,97763.03
2023-03-14T14:47:57.073Z,97761.05
2023-03-14T14:53:02.695Z,97768.56
2023-03-14T14:58:25.222Z,97776.02
2023-03-14T15:03:30.975Z,97768.93
2023-03-14T15:08:33.879Z,97778.25
2023-03-14T15:13:37.094Z,97776.83
2023-03-14T15:18:39.999Z,97769.27
2023-03-14T15:23:43.185Z,97777.01
2023-03-14T15:28:47.447Z,97778.70
2023-03-14T15:33:51.324Z,97778.96
2023-03-14T15:38:55.993Z,97779.96
2023-03-14T15:43:59.435Z,97779.52
2023-03-14T15:49:02.540Z,97785.65
2023-03-14T15:54:05.758Z,97790.30
2023-03-14T15:59:08.891Z,97788.11
2023-03-14T16:04:12.142Z,97782.04
2023-03-14T16:09:15.304Z,97780.35
2023-03-14T16:14:18.341Z,97784.30
2023-03-14T16:19:21.396Z,97786.06
2023-03-14T16:24:24.711Z,97796.80
2023-03-14T16:29:28.317Z,97798.11
2023-03-14T16:34:32.046Z,97796.77
2023-03-14T16:39:43.968Z,97805.27
2023-03-14T16:44:54.448Z,97803.62
2023-03-14T16:49:57.457Z,97809.74
2023-03-14T16:55:00.467Z,97811.72
2023-03-14T17:00:04.880Z,97812.91
2023-03-14T17:05:08.357Z,97819.31
2023-03-14T17:10:12.962Z,97817.52
2023-03-14T17:15:16.175Z,97817.55
2023-03-14T17:20:19.492Z,97813.14
2023-03-14T17:25:22.595Z,97812.94
2023-03-14T17:30:25.601Z,97815.61
2023-03-14T17:35:29.007Z,97817.41
2023-03-14T17:40:32.344Z,97827.09
2023-03-14T17:45:36.062Z,97830.38
2023-03-14T17:50:39.186Z,97833.98
2023-03-14T17:55:42.521Z,97840.25
2023-03-14T18:00:45.484Z,97842.15
2023-03-14T18:05:49.116Z,97846.10
2023-03-14T18:10:55.203Z,97849.61
2023-03-14T18:15:58.778Z,97849.05
2023-03-14T18:21:01.927Z,97853.58
2023-03-14T18:26:05.337Z,97859.63
2023-03-14T18:31:11.226Z,97859.33
2023-03-14T18:36:14.415Z,97864.33
2023-03-14T18:41:20.298Z,97869.48
2023-03-14T18:46:24.382Z,97868.34
2023-03-14T18:51:31.272Z,97864.71
2023-03-14T18:56:34.333Z,97869.73
2023-03-14T19:01:38.159Z,97876.33
2023-03-14T19:06:41.979Z,97875.31
2023-03-14T19:11:45.109Z,97880.95
2023-03-14T19:16:48.466Z,97880.75
2023-03-14T19:21:51.513Z,97880.58
2023-03-14T19:26:55.761Z,97882.29
2023-03-14T19:31:58.973Z,97887.27
2023-03-14T19:37:02.072Z,97896.45
2023-03-14T19:42:05.382Z,97899.16
2023-03-14T19:47:08.383Z,97893.59
2023-03-14T19:52:11.490Z,97886.02
2023-03-14T19:57:14.802Z,97883.95
2023-03-14T20:02:19.984Z,97892.25
2023-03-14T20:07:23.887Z,97900.46
2023-03-14T20:12:30.725Z,97910.98
2023-03-14T20:17:38.646Z,97918.63
2023-03-14T20:22:42.132Z,97924.08
2023-03-14T20:27:46.894Z,97920.50
2023-03-14T20:32:51.337Z,97920.49
2023-03-14T20:37:56.320Z,97921.47
2023-03-14T20:42:59.592Z,97925.00
2023-03-14T20:48:02.802Z,97935.39
2023-03-14T20:53:05.973Z,97943.21
2023-03-14T20:58:13.032Z,97943.77
2023-03-14T21:03:17.964Z,97942.13
2023-03-14T21:08:24.692Z,97941.95
2023-03-14T21:13:27.864Z,97942.30
2023-03-14T21:18:31.896Z,97945.13
2023-03-14T21:23:35.100Z,97940.89
2023-03-14T21:28:38.125Z,97938.08
2023-03-14T21:33:41.317Z,97938.46
2023-03-14T21:38:44.426Z,97936.02
2023-03-14T21:43:47.536Z,97941.89
2023-03-14T21:48:50.541Z,97942.06
2023-03-14T21:53:54.373Z,97941.05
2023-03-14T21:58:59.326Z,98015.55
2023-03-14T22:04:02.841Z,98061.43
2023-03-14T22:09:05.935Z,98113.61
2023-03-14T22:14:09.053Z,98184.14
2023-03-14T22:19:12.166Z,98196.98
2023-03-14T22:24:15.469Z,98217.11
2023-03-14T22:29:18.374Z,98239.39
2023-03-14T22:34:21.598Z,98237.23
2023-03-14T22:39:24.958Z,98253.39
2023-03-14T22:44:33.288Z,98282.19
2023-03-14T22:49:36.237Z,98310.00
2023-03-14T22:54:39.366Z,98327.45
2023-03-14T22:59:42.454Z,98342.20
2023-03-14T23:04:45.464Z,98356.96
2023-03-14T23:09:48.364Z,98390.49
2023-03-14T23:14:51.373Z,98415.55
2023-03-14T23:19:54.755Z,98425.81
2023-03-14T23:24:57.905Z,98442.45
2023-03-14T23:30:01.025Z,98473.57
2023-03-14T23:35:04.615Z,98497.41
2023-03-14T23:40:08.290Z,98521.77
2023-03-14T23:45:14.263Z,98530.95
2023-03-14T23:50:17.340Z,98529.45
2023-03-14T23:55:20.241Z,98542.09
